sensor_id;sensor_type;location;lat;lon;timestamp;P1;durP1;ratioP1;P2;durP2;ratioP2
13026;SDS011;77263;42.680;23.324;2024-03-22T00:00:19;29.87;;;19.73;;
13026;SDS011;77263;42.680;23.324;2024-03-22T00:02:47;26.97;;;20.17;;
13026;SDS011;77263;42.680;23.324;2024-03-22T00:05:13;29.60;;;20.37;;
13026;SDS011;77263;42.680;23.324;2024-03-22T00:07:41;32.33;;;19.20;;
13026;SDS011;77263;42.680;23.324;2024-03-22T00:10:09;29.87;;;20.33;;
13026;SDS011;77263;42.680;23.324;2024-03-22T00:12:38;27.87;;;19.60;;
13026;SDS011;77263;42.680;23.324;2024-03-22T00:15:06;26.37;;;19.07;;
13026;SDS011;77263;42.680;23.324;2024-03-22T00:17:33;24.67;;;17.60;;
13026;SDS011;77263;42.680;23.324;2024-03-22T00:19:59;30.50;;;20.27;;
13026;SDS011;77263;42.680;23.324;2024-03-22T00:22:32;27.13;;;17.60;;
13026;SDS011;77263;42.680;23.324;2024-03-22T00:24:58;28.07;;;20.13;;
13026;SDS011;77263;42.680;23.324;2024-03-22T00:27:28;25.23;;;19.20;;
13026;SDS011;77263;42.680;23.324;2024-03-22T00:29:55;26.00;;;19.37;;
13026;SDS011;77263;42.680;23.324;2024-03-22T00:32:23;27.80;;;18.97;;
13026;SDS011;77263;42.680;23.324;2024-03-22T00:34:49;25.20;;;18.90;;
13026;SDS011;77263;42.680;23.324;2024-03-22T00:37:20;25.87;;;19.07;;
13026;SDS011;77263;42.680;23.324;2024-03-22T00:39:46;23.33;;;17.67;;
13026;SDS011;77263;42.680;23.324;2024-03-22T00:42:20;22.87;;;17.67;;
13026;SDS011;77263;42.680;23.324;2024-03-22T00:44:52;26.27;;;18.57;;
13026;SDS011;77263;42.680;23.324;2024-03-22T00:47:18;27.60;;;18.40;;
13026;SDS011;77263;42.680;23.324;2024-03-22T00:49:47;23.17;;;16.97;;
13026;SDS011;77263;42.680;23.324;2024-03-22T00:52:13;24.40;;;17.40;;
13026;SDS011;77263;42.680;23.324;2024-03-22T00:54:40;24.93;;;17.43;;
13026;SDS011;77263;42.680;23.324;2024-03-22T00:57:12;21.13;;;17.33;;
13026;SDS011;77263;42.680;23.324;2024-03-22T00:59:41;23.27;;;16.43;;
13026;SDS011;77263;42.680;23.324;2024-03-22T01:02:12;23.30;;;16.93;;
13026;SDS011;77263;42.680;23.324;2024-03-22T01:04:39;21.30;;;16.03;;
13026;SDS011;77263;42.680;23.324;2024-03-22T01:07:06;20.77;;;16.73;;
13026;SDS011;77263;42.680;23.324;2024-03-22T01:09:35;20.37;;;16.00;;
13026;SDS011;77263;42.680;23.324;2024-03-22T01:12:03;25.53;;;15.67;;
13026;SDS011;77263;42.680;23.324;2024-03-22T01:14:35;23.93;;;15.80;;
13026;SDS011;77263;42.680;23.324;2024-03-22T01:17:04;19.47;;;15.20;;
13026;SDS011;77263;42.680;23.324;2024-03-22T01:19:34;20.77;;;14.57;;
13026;SDS011;77263;42.680;23.324;2024-03-22T01:22:01;16.87;;;13.97;;
13026;SDS011;77263;42.680;23.324;2024-03-22T01:24:29;22.90;;;14.83;;
13026;SDS011;77263;42.680;23.324;2024-03-22T01:26:56;18.20;;;13.43;;
13026;SDS011;77263;42.680;23.324;2024-03-22T01:29:24;17.23;;;13.47;;
13026;SDS011;77263;42.680;23.324;2024-03-22T01:31:51;19.37;;;13.97;;
13026;SDS011;77263;42.680;23.324;2024-03-22T01:34:18;20.47;;;13.23;;
13026;SDS011;77263;42.680;23.324;2024-03-22T01:36:46;18.13;;;12.47;;
13026;SDS011;77263;42.680;23.324;2024-03-22T01:39:14;17.87;;;13.00;;
13026;SDS011;77263;42.680;23.324;2024-03-22T01:41:41;16.03;;;11.33;;
13026;SDS011;77263;42.680;23.324;2024-03-22T01:44:09;14.23;;;10.33;;
13026;SDS011;77263;42.680;23.324;2024-03-22T01:46:37;14.70;;;10.73;;
13026;SDS011;77263;42.680;23.324;2024-03-22T01:49:08;15.53;;;10.03;;
13026;SDS011;77263;42.680;23.324;2024-03-22T01:51:38;15.43;;;10.50;;
13026;SDS011;77263;42.680;23.324;2024-03-22T01:54:10;12.80;;;10.03;;
13026;SDS011;77263;42.680;23.324;2024-03-22T01:56:37;13.63;;;10.53;;
13026;SDS011;77263;42.680;23.324;2024-03-22T01:59:04;11.93;;;9.90;;
13026;SDS011;77263;42.680;23.324;2024-03-22T02:01:31;12.47;;;9.40;;
13026;SDS011;77263;42.680;23.324;2024-03-22T02:04:00;11.97;;;9.13;;
13026;SDS011;77263;42.680;23.324;2024-03-22T02:06:26;10.87;;;9.33;;
13026;SDS011;77263;42.680;23.324;2024-03-22T02:08:54;12.13;;;9.57;;
13026;SDS011;77263;42.680;23.324;2024-03-22T02:11:23;11.60;;;9.00;;
13026;SDS011;77263;42.680;23.324;2024-03-22T02:13:56;14.23;;;10.37;;
13026;SDS011;77263;42.680;23.324;2024-03-22T02:16:22;12.77;;;9.40;;
13026;SDS011;77263;42.680;23.324;2024-03-22T02:18:51;14.43;;;10.47;;
13026;SDS011;77263;42.680;23.324;2024-03-22T02:21:17;12.50;;;9.87;;
13026;SDS011;77263;42.680;23.324;2024-03-22T02:23:46;15.13;;;11.33;;
13026;SDS011;77263;42.680;23.324;2024-03-22T02:26:12;16.00;;;10.43;;
13026;SDS011;77263;42.680;23.324;2024-03-22T02:28:40;14.77;;;10.53;;
13026;SDS011;77263;42.680;23.324;2024-03-22T02:31:07;13.43;;;10.97;;
13026;SDS011;77263;42.680;23.324;2024-03-22T02:33:33;13.70;;;10.63;;
13026;SDS011;77263;42.680;23.324;2024-03-22T02:35:59;17.97;;;12.77;;
13026;SDS011;77263;42.680;23.324;2024-03-22T02:38:27;18.50;;;13.10;;
13026;SDS011;77263;42.680;23.324;2024-03-22T02:40:55;21.40;;;13.57;;
13026;SDS011;77263;42.680;23.324;2024-03-22T02:43:24;18.13;;;13.40;;
13026;SDS011;77263;42.680;23.324;2024-03-22T02:45:50;19.00;;;13.90;;
13026;SDS011;77263;42.680;23.324;2024-03-22T02:48:17;17.67;;;12.53;;
13026;SDS011;77263;42.680;23.324;2024-03-22T02:50:44;16.80;;;13.17;;
13026;SDS011;77263;42.680;23.324;2024-03-22T02:53:14;17.87;;;13.60;;
13026;SDS011;77263;42.680;23.324;2024-03-22T02:55:44;16.03;;;13.60;;
13026;SDS011;77263;42.680;23.324;2024-03-22T02:58:13;20.80;;;14.17;;
13026;SDS011;77263;42.680;23.324;2024-03-22T03:00:40;17.50;;;13.23;;
13026;SDS011;77263;42.680;23.324;2024-03-22T03:03:07;17.27;;;12.87;;
13026;SDS011;77263;42.680;23.324;2024-03-22T03:05:34;16.70;;;13.83;;
13026;SDS011;77263;42.680;23.324;2024-03-22T03:08:02;19.03;;;12.73;;
13026;SDS011;77263;42.680;23.324;2024-03-22T03:10:29;21.87;;;15.47;;
13026;SDS011;77263;42.680;23.324;2024-03-22T03:12:56;16.47;;;13.37;;
13026;SDS011;77263;42.680;23.324;2024-03-22T03:15:35;23.03;;;15.37;;
13026;SDS011;77263;42.680;23.324;2024-03-22T03:18:02;21.07;;;14.30;;
13026;SDS011;77263;42.680;23.324;2024-03-22T03:20:29;18.53;;;15.20;;
13026;SDS011;77263;42.680;23.324;2024-03-22T03:22:59;20.63;;;14.10;;
13026;SDS011;77263;42.680;23.324;2024-03-22T03:25:25;20.23;;;15.37;;
13026;SDS011;77263;42.680;23.324;2024-03-22T03:27:54;19.93;;;14.63;;
13026;SDS011;77263;42.680;23.324;2024-03-22T03:30:20;21.63;;;14.73;;
13026;SDS011;77263;42.680;23.324;2024-03-22T03:32:50;18.40;;;13.33;;
13026;SDS011;77263;42.680;23.324;2024-03-22T03:35:18;17.83;;;13.50;;
13026;SDS011;77263;42.680;23.324;2024-03-22T03:37:46;18.70;;;12.37;;
13026;SDS011;77263;42.680;23.324;2024-03-22T03:40:12;18.63;;;11.90;;
13026;SDS011;77263;42.680;23.324;2024-03-22T03:42:39;15.10;;;11.40;;
13026;SDS011;77263;42.680;23.324;2024-03-22T03:45:06;12.80;;;11.00;;
13026;SDS011;77263;42.680;23.324;2024-03-22T03:47:35;14.20;;;10.50;;
13026;SDS011;77263;42.680;23.324;2024-03-22T03:50:05;14.60;;;11.77;;
13026;SDS011;77263;42.680;23.324;2024-03-22T03:52:32;16.93;;;10.77;;
13026;SDS011;77263;42.680;23.324;2024-03-22T03:55:01;15.57;;;11.47;;
13026;SDS011;77263;42.680;23.324;2024-03-22T03:57:29;13.27;;;10.00;;
13026;SDS011;77263;42.680;23.324;2024-03-22T03:59:55;13.67;;;10.53;;
13026;SDS011;77263;42.680;23.324;2024-03-22T04:02:22;14.43;;;10.47;;
13026;SDS011;77263;42.680;23.324;2024-03-22T04:04:51;12.80;;;10.30;;
13026;SDS011;77263;42.680;23.324;2024-03-22T04:07:22;14.73;;;10.67;;
13026;SDS011;77263;42.680;23.324;2024-03-22T04:09:49;13.80;;;10.47;;
13026;SDS011;77263;42.680;23.324;2024-03-22T04:12:16;12.63;;;10.27;;
13026;SDS011;77263;42.680;23.324;2024-03-22T04:14:42;14.93;;;10.67;;
13026;SDS011;77263;42.680;23.324;2024-03-22T04:17:09;16.63;;;11.33;;
13026;SDS011;77263;42.680;23.324;2024-03-22T04:19:39;12.90;;;10.80;;
13026;SDS011;77263;42.680;23.324;2024-03-22T04:22:06;16.80;;;11.27;;
13026;SDS011;77263;42.680;23.324;2024-03-22T04:24:33;13.17;;;11.23;;
13026;SDS011;77263;42.680;23.324;2024-03-22T04:27:01;12.83;;;9.93;;
13026;SDS011;77263;42.680;23.324;2024-03-22T04:29:27;12.30;;;9.93;;
13026;SDS011;77263;42.680;23.324;2024-03-22T04:31:54;9.83;;;8.13;;
13026;SDS011;77263;42.680;23.324;2024-03-22T04:34:22;12.57;;;9.53;;
13026;SDS011;77263;42.680;23.324;2024-03-22T04:36:50;14.23;;;9.90;;
13026;SDS011;77263;42.680;23.324;2024-03-22T04:39:22;10.70;;;8.00;;
13026;SDS011;77263;42.680;23.324;2024-03-22T04:41:52;14.67;;;10.00;;
13026;SDS011;77263;42.680;23.324;2024-03-22T04:44:19;10.10;;;8.33;;
13026;SDS011;77263;42.680;23.324;2024-03-22T04:46:46;12.73;;;9.87;;
13026;SDS011;77263;42.680;23.324;2024-03-22T04:49:13;14.20;;;11.03;;
13026;SDS011;77263;42.680;23.324;2024-03-22T04:51:40;13.63;;;9.73;;
13026;SDS011;77263;42.680;23.324;2024-03-22T04:54:08;14.87;;;9.90;;
13026;SDS011;77263;42.680;23.324;2024-03-22T04:56:36;14.03;;;9.87;;
13026;SDS011;77263;42.680;23.324;2024-03-22T04:59:06;11.77;;;9.20;;
13026;SDS011;77263;42.680;23.324;2024-03-22T05:01:33;11.43;;;8.60;;
13026;SDS011;77263;42.680;23.324;2024-03-22T05:04:01;11.30;;;9.27;;
13026;SDS011;77263;42.680;23.324;2024-03-22T05:06:28;10.30;;;8.90;;
13026;SDS011;77263;42.680;23.324;2024-03-22T05:08:56;11.87;;;9.50;;
13026;SDS011;77263;42.680;23.324;2024-03-22T05:11:23;12.07;;;9.37;;
13026;SDS011;77263;42.680;23.324;2024-03-22T05:13:51;10.27;;;8.10;;
13026;SDS011;77263;42.680;23.324;2024-03-22T05:16:19;11.00;;;8.80;;
13026;SDS011;77263;42.680;23.324;2024-03-22T05:18:49;10.43;;;9.27;;
13026;SDS011;77263;42.680;23.324;2024-03-22T05:21:15;18.70;;;11.87;;
13026;SDS011;77263;42.680;23.324;2024-03-22T05:23:43;15.50;;;11.50;;
13026;SDS011;77263;42.680;23.324;2024-03-22T05:26:09;16.37;;;10.87;;
13026;SDS011;77263;42.680;23.324;2024-03-22T05:28:38;12.97;;;9.07;;
13026;SDS011;77263;42.680;23.324;2024-03-22T05:31:04;10.03;;;9.03;;
13026;SDS011;77263;42.680;23.324;2024-03-22T05:33:32;11.10;;;9.30;;
13026;SDS011;77263;42.680;23.324;2024-03-22T05:35:58;10.93;;;9.10;;
13026;SDS011;77263;42.680;23.324;2024-03-22T05:38:25;11.63;;;9.20;;
13026;SDS011;77263;42.680;23.324;2024-03-22T05:40:53;13.00;;;8.97;;
13026;SDS011;77263;42.680;23.324;2024-03-22T05:43:20;12.17;;;9.77;;
13026;SDS011;77263;42.680;23.324;2024-03-22T05:45:47;10.60;;;8.93;;
13026;SDS011;77263;42.680;23.324;2024-03-22T05:48:14;10.67;;;8.80;;
13026;SDS011;77263;42.680;23.324;2024-03-22T05:50:48;12.33;;;9.27;;
13026;SDS011;77263;42.680;23.324;2024-03-22T05:53:15;11.23;;;8.70;;
13026;SDS011;77263;42.680;23.324;2024-03-22T05:55:43;10.87;;;8.37;;
13026;SDS011;77263;42.680;23.324;2024-03-22T05:58:09;10.70;;;9.07;;
13026;SDS011;77263;42.680;23.324;2024-03-22T06:00:36;11.67;;;9.03;;
13026;SDS011;77263;42.680;23.324;2024-03-22T06:03:02;11.33;;;9.57;;
13026;SDS011;77263;42.680;23.324;2024-03-22T06:05:30;13.63;;;9.17;;
13026;SDS011;77263;42.680;23.324;2024-03-22T06:07:57;10.17;;;9.03;;
13026;SDS011;77263;42.680;23.324;2024-03-22T06:10:24;12.20;;;9.50;;
13026;SDS011;77263;42.680;23.324;2024-03-22T06:12:50;11.97;;;8.93;;
13026;SDS011;77263;42.680;23.324;2024-03-22T06:15:18;10.80;;;9.17;;
13026;SDS011;77263;42.680;23.324;2024-03-22T06:17:44;11.17;;;9.53;;
13026;SDS011;77263;42.680;23.324;2024-03-22T06:20:13;9.70;;;8.77;;
13026;SDS011;77263;42.680;23.324;2024-03-22T06:22:41;11.13;;;9.97;;
13026;SDS011;77263;42.680;23.324;2024-03-22T06:25:12;18.57;;;10.43;;
13026;SDS011;77263;42.680;23.324;2024-03-22T06:27:38;12.87;;;9.27;;
13026;SDS011;77263;42.680;23.324;2024-03-22T06:30:06;10.10;;;8.77;;
13026;SDS011;77263;42.680;23.324;2024-03-22T06:32:32;9.80;;;8.83;;
13026;SDS011;77263;42.680;23.324;2024-03-22T06:34:59;10.37;;;9.23;;
13026;SDS011;77263;42.680;23.324;2024-03-22T06:37:26;11.93;;;8.43;;
13026;SDS011;77263;42.680;23.324;2024-03-22T06:39:53;11.00;;;8.60;;
13026;SDS011;77263;42.680;23.324;2024-03-22T06:42:21;13.77;;;8.87;;
13026;SDS011;77263;42.680;23.324;2024-03-22T06:44:51;11.87;;;9.60;;
13026;SDS011;77263;42.680;23.324;2024-03-22T06:47:19;11.10;;;9.93;;
13026;SDS011;77263;42.680;23.324;2024-03-22T06:49:49;10.67;;;9.50;;
13026;SDS011;77263;42.680;23.324;2024-03-22T06:52:16;11.17;;;9.60;;
13026;SDS011;77263;42.680;23.324;2024-03-22T06:54:48;16.30;;;9.87;;
13026;SDS011;77263;42.680;23.324;2024-03-22T06:57:15;11.70;;;10.23;;
13026;SDS011;77263;42.680;23.324;2024-03-22T06:59:46;14.07;;;10.67;;
13026;SDS011;77263;42.680;23.324;2024-03-22T07:02:15;15.20;;;11.30;;
13026;SDS011;77263;42.680;23.324;2024-03-22T07:04:44;15.17;;;12.00;;
13026;SDS011;77263;42.680;23.324;2024-03-22T07:07:14;15.53;;;11.20;;
13026;SDS011;77263;42.680;23.324;2024-03-22T07:09:42;18.65;;;11.70;;
13026;SDS011;77263;42.680;23.324;2024-03-22T07:12:08;15.87;;;12.50;;
13026;SDS011;77263;42.680;23.324;2024-03-22T07:14:36;18.00;;;12.23;;
13026;SDS011;77263;42.680;23.324;2024-03-22T07:17:08;18.30;;;13.05;;
13026;SDS011;77263;42.680;23.324;2024-03-22T07:19:36;18.10;;;12.77;;
13026;SDS011;77263;42.680;23.324;2024-03-22T07:22:05;17.53;;;12.67;;
13026;SDS011;77263;42.680;23.324;2024-03-22T07:24:32;15.67;;;13.07;;
13026;SDS011;77263;42.680;23.324;2024-03-22T07:27:02;18.17;;;13.57;;
13026;SDS011;77263;42.680;23.324;2024-03-22T07:29:29;19.53;;;13.07;;
13026;SDS011;77263;42.680;23.324;2024-03-22T07:31:56;15.23;;;12.83;;
13026;SDS011;77263;42.680;23.324;2024-03-22T07:34:45;13.90;;;10.70;;
13026;SDS011;77263;42.680;23.324;2024-03-22T07:37:12;13.20;;;10.93;;
13026;SDS011;77263;42.680;23.324;2024-03-22T07:39:39;14.90;;;11.00;;
13026;SDS011;77263;42.680;23.324;2024-03-22T07:42:09;13.45;;;10.32;;
13026;SDS011;77263;42.680;23.324;2024-03-22T07:44:35;10.82;;;8.93;;
13026;SDS011;77263;42.680;23.324;2024-03-22T07:47:02;8.93;;;7.70;;
13026;SDS011;77263;42.680;23.324;2024-03-22T07:49:31;7.97;;;7.18;;
13026;SDS011;77263;42.680;23.324;2024-03-22T07:52:03;6.88;;;6.15;;
13026;SDS011;77263;42.680;23.324;2024-03-22T07:54:32;7.85;;;6.30;;
13026;SDS011;77263;42.680;23.324;2024-03-22T07:57:05;6.45;;;5.70;;
13026;SDS011;77263;42.680;23.324;2024-03-22T07:59:31;9.05;;;6.43;;
13026;SDS011;77263;42.680;23.324;2024-03-22T08:01:59;7.18;;;5.93;;
13026;SDS011;77263;42.680;23.324;2024-03-22T08:04:28;12.00;;;6.20;;
13026;SDS011;77263;42.680;23.324;2024-03-22T08:06:56;7.35;;;5.78;;
13026;SDS011;77263;42.680;23.324;2024-03-22T08:09:24;6.60;;;5.90;;
13026;SDS011;77263;42.680;23.324;2024-03-22T08:11:52;7.80;;;6.28;;
13026;SDS011;77263;42.680;23.324;2024-03-22T08:14:20;6.03;;;5.43;;
13026;SDS011;77263;42.680;23.324;2024-03-22T08:16:47;7.85;;;5.32;;
13026;SDS011;77263;42.680;23.324;2024-03-22T08:19:14;5.57;;;5.07;;
13026;SDS011;77263;42.680;23.324;2024-03-22T08:21:42;5.55;;;4.82;;
13026;SDS011;77263;42.680;23.324;2024-03-22T08:24:08;4.93;;;4.53;;
13026;SDS011;77263;42.680;23.324;2024-03-22T08:26:36;6.22;;;4.70;;
13026;SDS011;77263;42.680;23.324;2024-03-22T08:29:02;5.35;;;4.85;;
13026;SDS011;77263;42.680;23.324;2024-03-22T08:31:29;6.07;;;4.78;;
13026;SDS011;77263;42.680;23.324;2024-03-22T08:33:55;5.45;;;4.95;;
13026;SDS011;77263;42.680;23.324;2024-03-22T08:36:22;5.35;;;4.85;;
13026;SDS011;77263;42.680;23.324;2024-03-22T08:38:49;12.07;;;10.82;;
13026;SDS011;77263;42.680;23.324;2024-03-22T08:41:16;5.22;;;4.72;;
13026;SDS011;77263;42.680;23.324;2024-03-22T08:43:43;4.70;;;4.22;;
13026;SDS011;77263;42.680;23.324;2024-03-22T08:46:14;5.22;;;3.95;;
13026;SDS011;77263;42.680;23.324;2024-03-22T08:48:40;5.93;;;4.22;;
13026;SDS011;77263;42.680;23.324;2024-03-22T08:51:07;4.40;;;3.95;;
13026;SDS011;77263;42.680;23.324;2024-03-22T08:53:33;4.05;;;3.75;;
13026;SDS011;77263;42.680;23.324;2024-03-22T08:56:01;4.30;;;3.90;;
13026;SDS011;77263;42.680;23.324;2024-03-22T08:58:28;5.82;;;4.43;;
13026;SDS011;77263;42.680;23.324;2024-03-22T09:00:58;5.85;;;5.25;;
13026;SDS011;77263;42.680;23.324;2024-03-22T09:03:24;4.47;;;4.07;;
13026;SDS011;77263;42.680;23.324;2024-03-22T09:05:52;6.53;;;4.00;;
13026;SDS011;77263;42.680;23.324;2024-03-22T09:08:19;4.50;;;4.10;;
13026;SDS011;77263;42.680;23.324;2024-03-22T09:10:47;4.40;;;4.10;;
13026;SDS011;77263;42.680;23.324;2024-03-22T09:13:15;4.80;;;4.40;;
13026;SDS011;77263;42.680;23.324;2024-03-22T09:15:41;4.63;;;4.10;;
13026;SDS011;77263;42.680;23.324;2024-03-22T09:18:10;5.13;;;4.63;;
13026;SDS011;77263;42.680;23.324;2024-03-22T09:20:38;4.90;;;4.22;;
13026;SDS011;77263;42.680;23.324;2024-03-22T09:23:06;4.78;;;4.15;;
13026;SDS011;77263;42.680;23.324;2024-03-22T09:25:32;13.23;;;11.98;;
13026;SDS011;77263;42.680;23.324;2024-03-22T09:28:00;8.80;;;7.93;;
13026;SDS011;77263;42.680;23.324;2024-03-22T09:30:26;4.82;;;4.43;;
13026;SDS011;77263;42.680;23.324;2024-03-22T09:32:54;5.35;;;4.85;;
13026;SDS011;77263;42.680;23.324;2024-03-22T09:35:21;23.67;;;18.92;;
13026;SDS011;77263;42.680;23.324;2024-03-22T09:37:48;5.53;;;4.78;;
13026;SDS011;77263;42.680;23.324;2024-03-22T09:40:15;4.93;;;4.15;;
13026;SDS011;77263;42.680;23.324;2024-03-22T09:42:43;5.47;;;4.40;;
13026;SDS011;77263;42.680;23.324;2024-03-22T09:45:14;4.72;;;4.20;;
13026;SDS011;77263;42.680;23.324;2024-03-22T09:47:46;4.72;;;4.32;;
13026;SDS011;77263;42.680;23.324;2024-03-22T09:50:18;4.88;;;4.45;;
13026;SDS011;77263;42.680;23.324;2024-03-22T09:52:48;5.85;;;4.35;;
13026;SDS011;77263;42.680;23.324;2024-03-22T09:55:20;4.82;;;4.20;;
13026;SDS011;77263;42.680;23.324;2024-03-22T09:57:48;4.38;;;3.85;;
13026;SDS011;77263;42.680;23.324;2024-03-22T10:00:19;3.78;;;3.47;;
13026;SDS011;77263;42.680;23.324;2024-03-22T10:02:47;4.57;;;4.18;;
13026;SDS011;77263;42.680;23.324;2024-03-22T10:05:16;5.00;;;3.95;;
13026;SDS011;77263;42.680;23.324;2024-03-22T10:07:46;4.20;;;3.80;;
13026;SDS011;77263;42.680;23.324;2024-03-22T10:10:13;5.32;;;4.63;;
13026;SDS011;77263;42.680;23.324;2024-03-22T10:12:41;4.65;;;3.95;;
13026;SDS011;77263;42.680;23.324;2024-03-22T10:15:08;7.03;;;4.95;;
13026;SDS011;77263;42.680;23.324;2024-03-22T10:17:34;5.18;;;4.03;;
13026;SDS011;77263;42.680;23.324;2024-03-22T10:20:03;7.65;;;4.88;;
13026;SDS011;77263;42.680;23.324;2024-03-22T10:22:35;4.25;;;3.85;;
13026;SDS011;77263;42.680;23.324;2024-03-22T10:25:08;4.10;;;3.72;;
13026;SDS011;77263;42.680;23.324;2024-03-22T10:27:34;4.47;;;4.18;;
13026;SDS011;77263;42.680;23.324;2024-03-22T10:30:05;4.15;;;3.75;;
13026;SDS011;77263;42.680;23.324;2024-03-22T10:32:38;4.35;;;3.95;;
13026;SDS011;77263;42.680;23.324;2024-03-22T10:35:08;4.40;;;3.60;;
13026;SDS011;77263;42.680;23.324;2024-03-22T10:37:38;3.97;;;3.67;;
13026;SDS011;77263;42.680;23.324;2024-03-22T10:40:13;4.45;;;4.05;;
13026;SDS011;77263;42.680;23.324;2024-03-22T10:42:39;4.15;;;3.72;;
13026;SDS011;77263;42.680;23.324;2024-03-22T10:45:08;4.82;;;4.32;;
13026;SDS011;77263;42.680;23.324;2024-03-22T10:47:36;5.72;;;3.88;;
13026;SDS011;77263;42.680;23.324;2024-03-22T10:50:05;5.75;;;4.00;;
13026;SDS011;77263;42.680;23.324;2024-03-22T10:52:33;4.22;;;3.92;;
13026;SDS011;77263;42.680;23.324;2024-03-22T10:55:04;3.75;;;3.45;;
13026;SDS011;77263;42.680;23.324;2024-03-22T10:57:35;3.97;;;3.63;;
13026;SDS011;77263;42.680;23.324;2024-03-22T11:00:04;4.38;;;3.95;;
13026;SDS011;77263;42.680;23.324;2024-03-22T11:02:35;5.47;;;4.03;;
13026;SDS011;77263;42.680;23.324;2024-03-22T11:05:03;5.32;;;4.03;;
13026;SDS011;77263;42.680;23.324;2024-03-22T11:07:29;4.47;;;4.07;;
13026;SDS011;77263;42.680;23.324;2024-03-22T11:10:02;5.03;;;3.97;;
13026;SDS011;77263;42.680;23.324;2024-03-22T11:12:35;5.43;;;4.45;;
13026;SDS011;77263;42.680;23.324;2024-03-22T11:15:04;4.75;;;4.35;;
13026;SDS011;77263;42.680;23.324;2024-03-22T11:17:31;5.03;;;4.53;;
13026;SDS011;77263;42.680;23.324;2024-03-22T11:19:58;5.38;;;4.50;;
13026;SDS011;77263;42.680;23.324;2024-03-22T11:22:25;4.82;;;4.22;;
13026;SDS011;77263;42.680;23.324;2024-03-22T11:24:52;4.30;;;4.00;;
13026;SDS011;77263;42.680;23.324;2024-03-22T11:27:21;4.70;;;4.30;;
13026;SDS011;77263;42.680;23.324;2024-03-22T11:30:00;4.35;;;3.95;;
13026;SDS011;77263;42.680;23.324;2024-03-22T11:32:27;4.35;;;3.95;;
13026;SDS011;77263;42.680;23.324;2024-03-22T11:34:55;3.97;;;3.67;;
13026;SDS011;77263;42.680;23.324;2024-03-22T11:37:25;4.03;;;3.72;;
13026;SDS011;77263;42.680;23.324;2024-03-22T11:39:53;3.85;;;3.42;;
13026;SDS011;77263;42.680;23.324;2024-03-22T11:42:26;3.80;;;3.50;;
13026;SDS011;77263;42.680;23.324;2024-03-22T11:44:53;3.88;;;3.58;;
13026;SDS011;77263;42.680;23.324;2024-03-22T11:47:20;4.40;;;4.10;;
13026;SDS011;77263;42.680;23.324;2024-03-22T11:49:48;4.22;;;3.83;;
13026;SDS011;77263;42.680;23.324;2024-03-22T11:52:16;3.90;;;3.60;;
13026;SDS011;77263;42.680;23.324;2024-03-22T11:54:50;4.25;;;3.78;;
13026;SDS011;77263;42.680;23.324;2024-03-22T11:57:20;3.83;;;3.53;;
13026;SDS011;77263;42.680;23.324;2024-03-22T11:59:48;3.92;;;3.55;;
13026;SDS011;77263;42.680;23.324;2024-03-22T12:02:17;4.50;;;4.03;;
13026;SDS011;77263;42.680;23.324;2024-03-22T12:04:45;4.15;;;3.75;;
13026;SDS011;77263;42.680;23.324;2024-03-22T12:07:18;3.85;;;3.58;;
13026;SDS011;77263;42.680;23.324;2024-03-22T12:09:45;9.13;;;5.70;;
13026;SDS011;77263;42.680;23.324;2024-03-22T12:12:14;4.15;;;3.75;;
13026;SDS011;77263;42.680;23.324;2024-03-22T12:14:43;4.82;;;4.05;;
13026;SDS011;77263;42.680;23.324;2024-03-22T12:17:12;4.10;;;3.80;;
13026;SDS011;77263;42.680;23.324;2024-03-22T12:19:38;4.18;;;3.78;;
13026;SDS011;77263;42.680;23.324;2024-03-22T12:22:08;5.82;;;3.88;;
13026;SDS011;77263;42.680;23.324;2024-03-22T12:24:35;4.78;;;4.00;;
13026;SDS011;77263;42.680;23.324;2024-03-22T12:27:04;4.00;;;3.70;;
13026;SDS011;77263;42.680;23.324;2024-03-22T12:29:34;5.35;;;3.88;;
13026;SDS011;77263;42.680;23.324;2024-03-22T12:32:05;4.45;;;3.90;;
13026;SDS011;77263;42.680;23.324;2024-03-22T12:34:33;4.30;;;3.90;;
13026;SDS011;77263;42.680;23.324;2024-03-22T12:37:03;5.40;;;3.80;;
13026;SDS011;77263;42.680;23.324;2024-03-22T12:39:32;6.15;;;3.60;;
13026;SDS011;77263;42.680;23.324;2024-03-22T12:42:00;3.95;;;3.65;;
13026;SDS011;77263;42.680;23.324;2024-03-22T12:44:26;4.20;;;3.80;;
13026;SDS011;77263;42.680;23.324;2024-03-22T12:46:55;4.03;;;3.58;;
13026;SDS011;77263;42.680;23.324;2024-03-22T12:49:24;4.70;;;4.28;;
13026;SDS011;77263;42.680;23.324;2024-03-22T12:52:00;4.80;;;3.90;;
13026;SDS011;77263;42.680;23.324;2024-03-22T12:54:27;6.47;;;5.72;;
13026;SDS011;77263;42.680;23.324;2024-03-22T12:56:57;4.05;;;3.75;;
13026;SDS011;77263;42.680;23.324;2024-03-22T12:59:22;4.47;;;4.07;;
13026;SDS011;77263;42.680;23.324;2024-03-22T13:01:50;6.53;;;5.93;;
13026;SDS011;77263;42.680;23.324;2024-03-22T13:04:18;4.07;;;3.75;;
13026;SDS011;77263;42.680;23.324;2024-03-22T13:06:45;4.32;;;3.90;;
13026;SDS011;77263;42.680;23.324;2024-03-22T13:09:11;5.55;;;4.30;;
13026;SDS011;77263;42.680;23.324;2024-03-22T13:11:38;3.72;;;3.42;;
13026;SDS011;77263;42.680;23.324;2024-03-22T13:14:07;4.15;;;3.75;;
13026;SDS011;77263;42.680;23.324;2024-03-22T13:16:34;4.30;;;3.75;;
13026;SDS011;77263;42.680;23.324;2024-03-22T13:19:00;4.32;;;3.92;;
13026;SDS011;77263;42.680;23.324;2024-03-22T13:21:27;4.43;;;3.40;;
13026;SDS011;77263;42.680;23.324;2024-03-22T13:23:53;4.57;;;3.38;;
13026;SDS011;77263;42.680;23.324;2024-03-22T13:26:20;4.63;;;3.60;;
13026;SDS011;77263;42.680;23.324;2024-03-22T13:28:46;4.40;;;4.00;;
13026;SDS011;77263;42.680;23.324;2024-03-22T13:31:16;5.22;;;4.25;;
13026;SDS011;77263;42.680;23.324;2024-03-22T13:33:41;3.95;;;3.65;;
13026;SDS011;77263;42.680;23.324;2024-03-22T13:36:09;4.10;;;3.75;;
13026;SDS011;77263;42.680;23.324;2024-03-22T13:38:35;4.70;;;3.80;;
13026;SDS011;77263;42.680;23.324;2024-03-22T13:41:03;4.55;;;4.15;;
13026;SDS011;77263;42.680;23.324;2024-03-22T13:43:31;3.97;;;3.58;;
13026;SDS011;77263;42.680;23.324;2024-03-22T13:46:00;4.18;;;3.88;;
13026;SDS011;77263;42.680;23.324;2024-03-22T13:48:33;4.07;;;3.75;;
13026;SDS011;77263;42.680;23.324;2024-03-22T13:51:04;4.30;;;3.90;;
13026;SDS011;77263;42.680;23.324;2024-03-22T13:53:31;4.60;;;4.20;;
13026;SDS011;77263;42.680;23.324;2024-03-22T13:55:58;5.07;;;4.20;;
13026;SDS011;77263;42.680;23.324;2024-03-22T13:58:27;4.35;;;4.00;;
13026;SDS011;77263;42.680;23.324;2024-03-22T14:00:55;4.68;;;4.25;;
13026;SDS011;77263;42.680;23.324;2024-03-22T14:03:25;4.18;;;3.88;;
13026;SDS011;77263;42.680;23.324;2024-03-22T14:05:58;3.83;;;3.47;;
13026;SDS011;77263;42.680;23.324;2024-03-22T14:08:27;4.82;;;4.05;;
13026;SDS011;77263;42.680;23.324;2024-03-22T14:10:54;4.63;;;4.10;;
13026;SDS011;77263;42.680;23.324;2024-03-22T14:13:22;4.13;;;3.73;;
13026;SDS011;77263;42.680;23.324;2024-03-22T14:15:49;4.10;;;3.80;;
13026;SDS011;77263;42.680;23.324;2024-03-22T14:18:17;4.73;;;3.90;;
13026;SDS011;77263;42.680;23.324;2024-03-22T14:20:45;3.90;;;3.58;;
13026;SDS011;77263;42.680;23.324;2024-03-22T14:23:14;4.80;;;3.80;;
13026;SDS011;77263;42.680;23.324;2024-03-22T14:25:40;5.60;;;4.50;;
13026;SDS011;77263;42.680;23.324;2024-03-22T14:28:12;4.68;;;3.92;;